sensor_id;sensor_type;location;lat;lon;timestamp;P1;durP1;ratioP1;P2;durP2;ratioP2
23543;SDS011;11950;51.230;4.012;2023-02-07T00:00:13;30.35;;;15.55;;
23543;SDS011;11950;51.230;4.012;2023-02-07T00:02:42;26.10;;;13.35;;
23543;SDS011;11950;51.230;4.012;2023-02-07T00:05:10;25.45;;;13.68;;
23543;SDS011;11950;51.230;4.012;2023-02-07T00:07:37;28.40;;;15.70;;
23543;SDS011;11950;51.230;4.012;2023-02-07T00:10:04;24.98;;;14.07;;
23543;SDS011;11950;51.230;4.012;2023-02-07T00:12:31;26.55;;;14.73;;
23543;SDS011;11950;51.230;4.012;2023-02-07T00:14:58;26.00;;;14.15;;
23543;SDS011;11950;51.230;4.012;2023-02-07T00:17:24;29.80;;;14.68;;
23543;SDS011;11950;51.230;4.012;2023-02-07T00:19:52;24.88;;;15.38;;
23543;SDS011;11950;51.230;4.012;2023-02-07T00:22:19;25.70;;;14.23;;
23543;SDS011;11950;51.230;4.012;2023-02-07T00:24:45;23.58;;;13.30;;
23543;SDS011;11950;51.230;4.012;2023-02-07T00:27:11;20.88;;;12.98;;
23543;SDS011;11950;51.230;4.012;2023-02-07T00:29:38;28.90;;;14.63;;
23543;SDS011;11950;51.230;4.012;2023-02-07T00:32:05;29.83;;;14.70;;
23543;SDS011;11950;51.230;4.012;2023-02-07T00:34:33;28.88;;;13.98;;
23543;SDS011;11950;51.230;4.012;2023-02-07T00:37:01;28.50;;;13.85;;
23543;SDS011;11950;51.230;4.012;2023-02-07T00:39:29;21.40;;;13.90;;
23543;SDS011;11950;51.230;4.012;2023-02-07T00:41:56;26.52;;;14.07;;
23543;SDS011;11950;51.230;4.012;2023-02-07T00:44:22;25.48;;;14.43;;
23543;SDS011;11950;51.230;4.012;2023-02-07T00:46:50;21.67;;;13.82;;
23543;SDS011;11950;51.230;4.012;2023-02-07T00:49:17;23.40;;;14.10;;
23543;SDS011;11950;51.230;4.012;2023-02-07T00:51:43;25.50;;;13.38;;
23543;SDS011;11950;51.230;4.012;2023-02-07T00:54:10;24.02;;;13.95;;
23543;SDS011;11950;51.230;4.012;2023-02-07T00:56:36;27.42;;;14.23;;
23543;SDS011;11950;51.230;4.012;2023-02-07T00:59:02;18.25;;;13.23;;
23543;SDS011;11950;51.230;4.012;2023-02-07T01:01:29;21.67;;;14.00;;
23543;SDS011;11950;51.230;4.012;2023-02-07T01:03:55;23.50;;;14.07;;
23543;SDS011;11950;51.230;4.012;2023-02-07T01:06:22;23.15;;;13.38;;
23543;SDS011;11950;51.230;4.012;2023-02-07T01:08:48;23.52;;;14.02;;
23543;SDS011;11950;51.230;4.012;2023-02-07T01:11:15;23.88;;;13.80;;
23543;SDS011;11950;51.230;4.012;2023-02-07T01:13:43;22.75;;;14.13;;
23543;SDS011;11950;51.230;4.012;2023-02-07T01:16:17;26.13;;;13.68;;
23543;SDS011;11950;51.230;4.012;2023-02-07T01:18:43;24.50;;;13.73;;
23543;SDS011;11950;51.230;4.012;2023-02-07T01:21:16;28.95;;;13.20;;
23543;SDS011;11950;51.230;4.012;2023-02-07T01:23:45;22.08;;;13.43;;
23543;SDS011;11950;51.230;4.012;2023-02-07T01:26:11;27.20;;;13.40;;
23543;SDS011;11950;51.230;4.012;2023-02-07T01:28:37;25.02;;;14.25;;
23543;SDS011;11950;51.230;4.012;2023-02-07T01:31:08;28.25;;;13.48;;
23543;SDS011;11950;51.230;4.012;2023-02-07T01:33:35;24.15;;;13.73;;
23543;SDS011;11950;51.230;4.012;2023-02-07T01:36:06;21.95;;;13.82;;
23543;SDS011;11950;51.230;4.012;2023-02-07T01:38:34;25.27;;;14.23;;
23543;SDS011;11950;51.230;4.012;2023-02-07T01:41:00;27.90;;;13.32;;
23543;SDS011;11950;51.230;4.012;2023-02-07T01:43:27;28.08;;;13.80;;
23543;SDS011;11950;51.230;4.012;2023-02-07T01:45:54;28.65;;;13.38;;
23543;SDS011;11950;51.230;4.012;2023-02-07T01:48:26;22.48;;;12.85;;
23543;SDS011;11950;51.230;4.012;2023-02-07T01:50:57;23.50;;;12.50;;
23543;SDS011;11950;51.230;4.012;2023-02-07T01:53:28;22.83;;;11.70;;
23543;SDS011;11950;51.230;4.012;2023-02-07T01:55:59;23.92;;;12.85;;
23543;SDS011;11950;51.230;4.012;2023-02-07T01:58:30;21.52;;;12.65;;
23543;SDS011;11950;51.230;4.012;2023-02-07T02:00:59;24.45;;;11.63;;
23543;SDS011;11950;51.230;4.012;2023-02-07T02:03:28;19.08;;;12.60;;
23543;SDS011;11950;51.230;4.012;2023-02-07T02:05:54;23.55;;;11.55;;
23543;SDS011;11950;51.230;4.012;2023-02-07T02:08:21;23.98;;;12.50;;
23543;SDS011;11950;51.230;4.012;2023-02-07T02:16:15;22.98;;;11.23;;
23543;SDS011;11950;51.230;4.012;2023-02-07T02:19:21;22.73;;;10.98;;
23543;SDS011;11950;51.230;4.012;2023-02-07T02:25:20;19.27;;;11.35;;
23543;SDS011;11950;51.230;4.012;2023-02-07T02:38:59;18.35;;;10.10;;
23543;SDS011;11950;51.230;4.012;2023-02-07T02:44:12;19.77;;;10.13;;
23543;SDS011;11950;51.230;4.012;2023-02-07T02:46:43;20.15;;;10.57;;
23543;SDS011;11950;51.230;4.012;2023-02-07T02:49:10;19.38;;;10.18;;
23543;SDS011;11950;51.230;4.012;2023-02-07T02:51:39;22.90;;;9.65;;
23543;SDS011;11950;51.230;4.012;2023-02-07T02:54:23;19.67;;;9.70;;
23543;SDS011;11950;51.230;4.012;2023-02-07T02:57:25;22.15;;;9.45;;
23543;SDS011;11950;51.230;4.012;2023-02-07T03:08:11;20.95;;;9.43;;
23543;SDS011;11950;51.230;4.012;2023-02-07T03:10:58;19.60;;;8.37;;
23543;SDS011;11950;51.230;4.012;2023-02-07T03:13:49;22.77;;;10.38;;
23543;SDS011;11950;51.230;4.012;2023-02-07T03:19:18;19.33;;;10.27;;
23543;SDS011;11950;51.230;4.012;2023-02-07T03:21:51;20.95;;;9.00;;
23543;SDS011;11950;51.230;4.012;2023-02-07T03:24:26;18.48;;;9.10;;
23543;SDS011;11950;51.230;4.012;2023-02-07T03:27:00;20.77;;;10.07;;
23543;SDS011;11950;51.230;4.012;2023-02-07T03:29:31;15.75;;;9.25;;
23543;SDS011;11950;51.230;4.012;2023-02-07T03:32:03;19.35;;;9.50;;
23543;SDS011;11950;51.230;4.012;2023-02-07T03:37:05;19.50;;;9.45;;
23543;SDS011;11950;51.230;4.012;2023-02-07T03:39:45;18.08;;;9.07;;
23543;SDS011;11950;51.230;4.012;2023-02-07T03:42:25;19.45;;;9.68;;
23543;SDS011;11950;51.230;4.012;2023-02-07T03:44:56;17.23;;;9.05;;
23543;SDS011;11950;51.230;4.012;2023-02-07T03:47:25;22.27;;;9.88;;
23543;SDS011;11950;51.230;4.012;2023-02-07T03:49:52;19.20;;;9.07;;
23543;SDS011;11950;51.230;4.012;2023-02-07T03:52:19;21.23;;;9.38;;
23543;SDS011;11950;51.230;4.012;2023-02-07T03:54:45;19.38;;;9.60;;
23543;SDS011;11950;51.230;4.012;2023-02-07T03:57:11;24.80;;;11.45;;
23543;SDS011;11950;51.230;4.012;2023-02-07T03:59:38;19.90;;;9.50;;
23543;SDS011;11950;51.230;4.012;2023-02-07T04:02:04;21.80;;;9.57;;
23543;SDS011;11950;51.230;4.012;2023-02-07T04:04:30;22.63;;;9.98;;
23543;SDS011;11950;51.230;4.012;2023-02-07T04:06:57;20.42;;;9.75;;
23543;SDS011;11950;51.230;4.012;2023-02-07T04:09:24;20.35;;;9.73;;
23543;SDS011;11950;51.230;4.012;2023-02-07T04:11:50;23.55;;;10.55;;
23543;SDS011;11950;51.230;4.012;2023-02-07T04:14:17;22.17;;;10.32;;
23543;SDS011;11950;51.230;4.012;2023-02-07T04:16:47;19.55;;;9.45;;
23543;SDS011;11950;51.230;4.012;2023-02-07T04:19:14;21.50;;;9.27;;
23543;SDS011;11950;51.230;4.012;2023-02-07T04:21:41;22.23;;;9.50;;
23543;SDS011;11950;51.230;4.012;2023-02-07T04:24:07;18.20;;;9.40;;
23543;SDS011;11950;51.230;4.012;2023-02-07T04:26:34;20.98;;;9.07;;
23543;SDS011;11950;51.230;4.012;2023-02-07T04:29:00;21.00;;;10.30;;
23543;SDS011;11950;51.230;4.012;2023-02-07T04:31:27;22.33;;;9.10;;
23543;SDS011;11950;51.230;4.012;2023-02-07T04:33:53;21.30;;;9.98;;
23543;SDS011;11950;51.230;4.012;2023-02-07T04:36:20;23.65;;;9.43;;
23543;SDS011;11950;51.230;4.012;2023-02-07T04:38:47;18.10;;;9.45;;
23543;SDS011;11950;51.230;4.012;2023-02-07T04:41:13;20.35;;;10.15;;
23543;SDS011;11950;51.230;4.012;2023-02-07T04:43:40;23.92;;;10.00;;
23543;SDS011;11950;51.230;4.012;2023-02-07T04:46:06;26.90;;;10.50;;
23543;SDS011;11950;51.230;4.012;2023-02-07T04:48:34;20.25;;;10.32;;
23543;SDS011;11950;51.230;4.012;2023-02-07T04:51:02;23.60;;;10.50;;
23543;SDS011;11950;51.230;4.012;2023-02-07T04:53:29;25.60;;;10.25;;
23543;SDS011;11950;51.230;4.012;2023-02-07T04:55:56;18.95;;;9.80;;
23543;SDS011;11950;51.230;4.012;2023-02-07T04:58:22;21.20;;;10.23;;
23543;SDS011;11950;51.230;4.012;2023-02-07T05:00:48;20.90;;;10.35;;
23543;SDS011;11950;51.230;4.012;2023-02-07T05:03:15;27.25;;;11.10;;
23543;SDS011;11950;51.230;4.012;2023-02-07T05:05:42;19.83;;;9.75;;
23543;SDS011;11950;51.230;4.012;2023-02-07T05:08:09;21.48;;;9.57;;
23543;SDS011;11950;51.230;4.012;2023-02-07T05:10:36;25.15;;;10.35;;
23543;SDS011;11950;51.230;4.012;2023-02-07T05:13:03;18.27;;;9.48;;
23543;SDS011;11950;51.230;4.012;2023-02-07T05:15:30;20.98;;;9.93;;
23543;SDS011;11950;51.230;4.012;2023-02-07T05:17:56;20.55;;;10.45;;
23543;SDS011;11950;51.230;4.012;2023-02-07T05:20:23;24.33;;;10.77;;
23543;SDS011;11950;51.230;4.012;2023-02-07T05:22:50;24.67;;;10.30;;
23543;SDS011;11950;51.230;4.012;2023-02-07T05:25:17;22.50;;;10.35;;
23543;SDS011;11950;51.230;4.012;2023-02-07T05:27:43;21.48;;;10.23;;
23543;SDS011;11950;51.230;4.012;2023-02-07T05:30:10;22.67;;;10.65;;
23543;SDS011;11950;51.230;4.012;2023-02-07T05:32:37;24.27;;;10.32;;
23543;SDS011;11950;51.230;4.012;2023-02-07T05:35:21;29.40;;;11.75;;
23543;SDS011;11950;51.230;4.012;2023-02-07T05:37:48;27.52;;;11.48;;
23543;SDS011;11950;51.230;4.012;2023-02-07T05:40:14;30.58;;;11.73;;
23543;SDS011;11950;51.230;4.012;2023-02-07T05:42:40;26.75;;;12.10;;
23543;SDS011;11950;51.230;4.012;2023-02-07T05:45:07;24.80;;;11.02;;
23543;SDS011;11950;51.230;4.012;2023-02-07T05:47:34;25.45;;;10.95;;
23543;SDS011;11950;51.230;4.012;2023-02-07T05:50:00;27.55;;;12.27;;
23543;SDS011;11950;51.230;4.012;2023-02-07T05:52:27;30.30;;;11.60;;
23543;SDS011;11950;51.230;4.012;2023-02-07T05:54:53;24.67;;;11.43;;
23543;SDS011;11950;51.230;4.012;2023-02-07T05:57:20;29.92;;;11.52;;
23543;SDS011;11950;51.230;4.012;2023-02-07T05:59:47;22.98;;;11.25;;
23543;SDS011;11950;51.230;4.012;2023-02-07T06:02:13;27.17;;;11.48;;
23543;SDS011;11950;51.230;4.012;2023-02-07T06:04:39;24.70;;;11.23;;
23543;SDS011;11950;51.230;4.012;2023-02-07T06:07:06;23.77;;;10.55;;
23543;SDS011;11950;51.230;4.012;2023-02-07T06:09:32;23.23;;;11.57;;
23543;SDS011;11950;51.230;4.012;2023-02-07T06:11:58;26.25;;;12.02;;
23543;SDS011;11950;51.230;4.012;2023-02-07T06:14:25;21.48;;;11.05;;
23543;SDS011;11950;51.230;4.012;2023-02-07T06:16:52;23.40;;;12.18;;
23543;SDS011;11950;51.230;4.012;2023-02-07T06:19:18;27.08;;;12.13;;
23543;SDS011;11950;51.230;4.012;2023-02-07T06:21:44;29.25;;;12.30;;
23543;SDS011;11950;51.230;4.012;2023-02-07T06:24:10;27.02;;;12.30;;
23543;SDS011;11950;51.230;4.012;2023-02-07T06:26:37;31.63;;;13.05;;
23543;SDS011;11950;51.230;4.012;2023-02-07T06:29:03;33.28;;;15.70;;
23543;SDS011;11950;51.230;4.012;2023-02-07T06:31:29;34.47;;;14.32;;
23543;SDS011;11950;51.230;4.012;2023-02-07T06:33:56;30.02;;;14.00;;
23543;SDS011;11950;51.230;4.012;2023-02-07T06:36:22;29.88;;;15.27;;
23543;SDS011;11950;51.230;4.012;2023-02-07T06:38:48;30.83;;;14.82;;
23543;SDS011;11950;51.230;4.012;2023-02-07T06:41:18;32.30;;;14.23;;
23543;SDS011;11950;51.230;4.012;2023-02-07T06:43:44;30.92;;;14.55;;
23543;SDS011;11950;51.230;4.012;2023-02-07T06:46:11;39.75;;;15.52;;
23543;SDS011;11950;51.230;4.012;2023-02-07T06:48:37;32.35;;;14.65;;
23543;SDS011;11950;51.230;4.012;2023-02-07T06:51:04;34.28;;;13.50;;
23543;SDS011;11950;51.230;4.012;2023-02-07T06:53:30;34.75;;;16.63;;
23543;SDS011;11950;51.230;4.012;2023-02-07T06:55:58;38.97;;;17.50;;
23543;SDS011;11950;51.230;4.012;2023-02-07T06:58:24;36.72;;;17.42;;
23543;SDS011;11950;51.230;4.012;2023-02-07T07:00:50;36.47;;;18.20;;
23543;SDS011;11950;51.230;4.012;2023-02-07T07:03:17;39.80;;;19.08;;
23543;SDS011;11950;51.230;4.012;2023-02-07T07:05:43;40.30;;;18.83;;
23543;SDS011;11950;51.230;4.012;2023-02-07T07:08:10;44.85;;;19.85;;
23543;SDS011;11950;51.230;4.012;2023-02-07T07:10:36;39.25;;;21.55;;
23543;SDS011;11950;51.230;4.012;2023-02-07T07:13:03;41.20;;;20.85;;
23543;SDS011;11950;51.230;4.012;2023-02-07T07:15:29;44.13;;;20.42;;
23543;SDS011;11950;51.230;4.012;2023-02-07T07:17:55;42.08;;;21.48;;
23543;SDS011;11950;51.230;4.012;2023-02-07T07:20:22;44.17;;;21.65;;
23543;SDS011;11950;51.230;4.012;2023-02-07T07:22:48;39.35;;;21.73;;
23543;SDS011;11950;51.230;4.012;2023-02-07T07:25:14;45.67;;;20.73;;
23543;SDS011;11950;51.230;4.012;2023-02-07T07:27:40;41.55;;;21.25;;
23543;SDS011;11950;51.230;4.012;2023-02-07T07:30:07;43.97;;;20.83;;
23543;SDS011;11950;51.230;4.012;2023-02-07T07:32:34;42.08;;;20.30;;
23543;SDS011;11950;51.230;4.012;2023-02-07T07:35:01;37.90;;;18.80;;
23543;SDS011;11950;51.230;4.012;2023-02-07T07:37:28;43.15;;;19.13;;
23543;SDS011;11950;51.230;4.012;2023-02-07T07:39:55;41.75;;;20.05;;
23543;SDS011;11950;51.230;4.012;2023-02-07T07:42:22;39.65;;;20.08;;
23543;SDS011;11950;51.230;4.012;2023-02-07T07:45:05;43.67;;;19.60;;
23543;SDS011;11950;51.230;4.012;2023-02-07T07:47:32;43.13;;;20.45;;
23543;SDS011;11950;51.230;4.012;2023-02-07T07:49:59;41.55;;;20.42;;
23543;SDS011;11950;51.230;4.012;2023-02-07T07:52:25;43.90;;;21.02;;
23543;SDS011;11950;51.230;4.012;2023-02-07T07:54:51;40.20;;;19.58;;
23543;SDS011;11950;51.230;4.012;2023-02-07T07:57:17;45.28;;;20.88;;
23543;SDS011;11950;51.230;4.012;2023-02-07T07:59:44;44.90;;;20.35;;
23543;SDS011;11950;51.230;4.012;2023-02-07T08:02:13;43.28;;;19.95;;
23543;SDS011;11950;51.230;4.012;2023-02-07T08:04:39;40.67;;;21.17;;
23543;SDS011;11950;51.230;4.012;2023-02-07T08:07:06;39.65;;;19.23;;
23543;SDS011;11950;51.230;4.012;2023-02-07T08:09:32;41.35;;;19.73;;
23543;SDS011;11950;51.230;4.012;2023-02-07T08:11:58;44.00;;;19.98;;
23543;SDS011;11950;51.230;4.012;2023-02-07T08:14:25;36.92;;;19.23;;
23543;SDS011;11950;51.230;4.012;2023-02-07T08:16:51;41.08;;;18.77;;
23543;SDS011;11950;51.230;4.012;2023-02-07T08:19:17;41.75;;;20.73;;
23543;SDS011;11950;51.230;4.012;2023-02-07T08:21:43;39.50;;;20.33;;
23543;SDS011;11950;51.230;4.012;2023-02-07T08:24:10;37.10;;;20.48;;
23543;SDS011;11950;51.230;4.012;2023-02-07T08:26:36;40.03;;;20.73;;
23543;SDS011;11950;51.230;4.012;2023-02-07T08:29:03;42.63;;;19.45;;
23543;SDS011;11950;51.230;4.012;2023-02-07T08:31:29;45.92;;;20.23;;
23543;SDS011;11950;51.230;4.012;2023-02-07T08:33:55;38.25;;;18.75;;
23543;SDS011;11950;51.230;4.012;2023-02-07T08:36:22;42.75;;;19.90;;
23543;SDS011;11950;51.230;4.012;2023-02-07T08:38:49;41.58;;;20.45;;
23543;SDS011;11950;51.230;4.012;2023-02-07T08:41:15;37.25;;;19.52;;
23543;SDS011;11950;51.230;4.012;2023-02-07T08:43:42;39.58;;;20.23;;
23543;SDS011;11950;51.230;4.012;2023-02-07T08:46:08;40.33;;;20.10;;
23543;SDS011;11950;51.230;4.012;2023-02-07T08:48:35;39.10;;;20.05;;
23543;SDS011;11950;51.230;4.012;2023-02-07T08:51:07;40.22;;;21.25;;
23543;SDS011;11950;51.230;4.012;2023-02-07T08:53:34;42.92;;;20.95;;
23543;SDS011;11950;51.230;4.012;2023-02-07T08:56:01;41.65;;;21.65;;
23543;SDS011;11950;51.230;4.012;2023-02-07T08:58:27;40.95;;;20.48;;
23543;SDS011;11950;51.230;4.012;2023-02-07T09:00:53;41.63;;;19.33;;
23543;SDS011;11950;51.230;4.012;2023-02-07T09:03:20;41.28;;;20.10;;
23543;SDS011;11950;51.230;4.012;2023-02-07T09:05:46;44.58;;;20.80;;
23543;SDS011;11950;51.230;4.012;2023-02-07T09:08:12;39.72;;;20.52;;
23543;SDS011;11950;51.230;4.012;2023-02-07T09:10:39;39.50;;;20.98;;
23543;SDS011;11950;51.230;4.012;2023-02-07T09:13:05;40.00;;;19.73;;
23543;SDS011;11950;51.230;4.012;2023-02-07T09:15:31;42.30;;;20.95;;
23543;SDS011;11950;51.230;4.012;2023-02-07T09:17:57;38.10;;;20.75;;
23543;SDS011;11950;51.230;4.012;2023-02-07T09:20:24;41.97;;;21.30;;
23543;SDS011;11950;51.230;4.012;2023-02-07T09:22:50;42.35;;;20.65;;
23543;SDS011;11950;51.230;4.012;2023-02-07T09:25:36;46.25;;;21.38;;
23543;SDS011;11950;51.230;4.012;2023-02-07T09:28:03;43.72;;;22.83;;
23543;SDS011;11950;51.230;4.012;2023-02-07T09:30:29;37.80;;;21.27;;
23543;SDS011;11950;51.230;4.012;2023-02-07T09:32:56;38.80;;;20.40;;
23543;SDS011;11950;51.230;4.012;2023-02-07T09:35:22;36.75;;;21.42;;
23543;SDS011;11950;51.230;4.012;2023-02-07T09:37:51;38.85;;;20.98;;
23543;SDS011;11950;51.230;4.012;2023-02-07T09:40:18;44.72;;;22.55;;
23543;SDS011;11950;51.230;4.012;2023-02-07T09:42:52;45.58;;;23.15;;
23543;SDS011;11950;51.230;4.012;2023-02-07T09:45:25;39.58;;;21.48;;
23543;SDS011;11950;51.230;4.012;2023-02-07T09:48:01;42.45;;;21.70;;
23543;SDS011;11950;51.230;4.012;2023-02-07T09:50:46;42.33;;;22.42;;
23543;SDS011;11950;51.230;4.012;2023-02-07T09:56:03;39.08;;;21.40;;
23543;SDS011;11950;51.230;4.012;2023-02-07T09:58:45;40.03;;;21.75;;
23543;SDS011;11950;51.230;4.012;2023-02-07T10:01:26;40.67;;;22.38;;
23543;SDS011;11950;51.230;4.012;2023-02-07T10:04:13;42.20;;;21.88;;
23543;SDS011;11950;51.230;4.012;2023-02-07T10:06:48;36.22;;;21.15;;
23543;SDS011;11950;51.230;4.012;2023-02-07T10:09:21;39.60;;;22.02;;
23543;SDS011;11950;51.230;4.012;2023-02-07T10:17:57;47.15;;;22.40;;
23543;SDS011;11950;51.230;4.012;2023-02-07T10:24:05;43.60;;;22.65;;
23543;SDS011;11950;51.230;4.012;2023-02-07T10:27:05;40.47;;;21.90;;
23543;SDS011;11950;51.230;4.012;2023-02-07T10:29:50;42.42;;;21.75;;
23543;SDS011;11950;51.230;4.012;2023-02-07T10:32:23;42.92;;;21.77;;
23543;SDS011;11950;51.230;4.012;2023-02-07T10:34:54;38.42;;;21.50;;
23543;SDS011;11950;51.230;4.012;2023-02-07T10:37:25;39.47;;;21.77;;
23543;SDS011;11950;51.230;4.012;2023-02-07T10:42:30;39.92;;;21.58;;
23543;SDS011;11950;51.230;4.012;2023-02-07T10:45:00;56.67;;;26.75;;
23543;SDS011;11950;51.230;4.012;2023-02-07T10:47:28;70.90;;;30.35;;
23543;SDS011;11950;51.230;4.012;2023-02-07T10:49:55;71.90;;;33.33;;
23543;SDS011;11950;51.230;4.012;2023-02-07T10:52:27;71.00;;;31.60;;
23543;SDS011;11950;51.230;4.012;2023-02-07T10:55:00;73.65;;;33.33;;
23543;SDS011;11950;51.230;4.012;2023-02-07T10:57:29;67.60;;;31.38;;
23543;SDS011;11950;51.230;4.012;2023-02-07T11:00:20;69.82;;;30.75;;
23543;SDS011;11950;51.230;4.012;2023-02-07T11:02:49;46.58;;;23.98;;
23543;SDS011;11950;51.230;4.012;2023-02-07T11:10:43;66.05;;;33.90;;
23543;SDS011;11950;51.230;4.012;2023-02-07T11:13:15;78.65;;;37.10;;
23543;SDS011;11950;51.230;4.012;2023-02-07T11:18:33;83.40;;;38.35;;
23543;SDS011;11950;51.230;4.012;2023-02-07T11:21:29;85.32;;;35.70;;
23543;SDS011;11950;51.230;4.012;2023-02-07T11:24:41;79.75;;;37.95;;
23543;SDS011;11950;51.230;4.012;2023-02-07T11:29:52;84.63;;;36.67;;
23543;SDS011;11950;51.230;4.012;2023-02-07T11:32:21;81.40;;;37.20;;
23543;SDS011;11950;51.230;4.012;2023-02-07T11:34:50;73.57;;;34.75;;
23543;SDS011;11950;51.230;4.012;2023-02-07T11:39:48;77.13;;;35.20;;
23543;SDS011;11950;51.230;4.012;2023-02-07T11:42:20;75.93;;;35.97;;
23543;SDS011;11950;51.230;4.012;2023-02-07T11:44:56;75.88;;;35.20;;
23543;SDS011;11950;51.230;4.012;2023-02-07T11:47:29;72.32;;;35.25;;
23543;SDS011;11950;51.230;4.012;2023-02-07T11:49:58;74.68;;;36.78;;
23543;SDS011;11950;51.230;4.012;2023-02-07T11:52:28;78.57;;;35.63;;
23543;SDS011;11950;51.230;4.012;2023-02-07T11:54:57;77.10;;;35.92;;
23543;SDS011;11950;51.230;4.012;2023-02-07T11:57:30;75.25;;;34.95;;
23543;SDS011;11950;51.230;4.012;2023-02-07T12:02:44;77.53;;;35.70;;
23543;SDS011;11950;51.230;4.012;2023-02-07T12:05:31;71.68;;;33.85;;
23543;SDS011;11950;51.230;4.012;2023-02-07T12:08:05;67.00;;;32.60;;
23543;SDS011;11950;51.230;4.012;2023-02-07T12:10:48;67.80;;;33.63;;
23543;SDS011;11950;51.230;4.012;2023-02-07T12:13:28;69.03;;;33.33;;
23543;SDS011;11950;51.230;4.012;2023-02-07T12:16:10;61.88;;;31.50;;
23543;SDS011;11950;51.230;4.012;2023-02-07T12:19:09;61.97;;;30.65;;
23543;SDS011;11950;51.230;4.012;2023-02-07T12:27:24;62.25;;;30.80;;
23543;SDS011;11950;51.230;4.012;2023-02-07T12:30:01;59.90;;;31.42;;
23543;SDS011;11950;51.230;4.012;2023-02-07T12:43:13;55.65;;;29.33;;
23543;SDS011;11950;51.230;4.012;2023-02-07T12:46:13;53.67;;;29.73;;
23543;SDS011;11950;51.230;4.012;2023-02-07T12:48:49;58.45;;;29.58;;
23543;SDS011;11950;51.230;4.012;2023-02-07T12:51:33;54.33;;;28.75;;
23543;SDS011;11950;51.230;4.012;2023-02-07T13:09:34;60.10;;;29.52;;
23543;SDS011;11950;51.230;4.012;2023-02-07T13:11:45;63.67;;;31.73;;
23543;SDS011;11950;51.230;4.012;2023-02-07T13:19:54;57.53;;;29.45;;
23543;SDS011;11950;51.230;4.012;2023-02-07T13:25:15;61.03;;;29.73;;
23543;SDS011;11950;51.230;4.012;2023-02-07T13:27:53;59.95;;;29.55;;
23543;SDS011;11950;51.230;4.012;2023-02-07T13:30:22;54.00;;;27.77;;
23543;SDS011;11950;51.230;4.012;2023-02-07T13:32:50;55.35;;;28.35;;
23543;SDS011;11950;51.230;4.012;2023-02-07T13:35:19;53.72;;;26.35;;
23543;SDS011;11950;51.230;4.012;2023-02-07T13:38:06;54.70;;;26.38;;
23543;SDS011;11950;51.230;4.012;2023-02-07T13:40:52;53.50;;;26.52;;
23543;SDS011;11950;51.230;4.012;2023-02-07T13:43:42;51.03;;;24.45;;
23543;SDS011;11950;51.230;4.012;2023-02-07T13:55:27;47.95;;;24.92;;
23543;SDS011;11950;51.230;4.012;2023-02-07T13:57:55;42.47;;;23.95;;
23543;SDS011;11950;51.230;4.012;2023-02-07T14:03:58;44.33;;;23.30;;
23543;SDS011;11950;51.230;4.012;2023-02-07T14:06:22;45.40;;;24.08;;
23543;SDS011;11950;51.230;4.012;2023-02-07T14:11:42;37.05;;;17.98;;
23543;SDS011;11950;51.230;4.012;2023-02-07T14:14:21;42.15;;;21.60;;
23543;SDS011;11950;51.230;4.012;2023-02-07T14:16:54;35.92;;;20.92;;
23543;SDS011;11950;51.230;4.012;2023-02-07T14:19:56;43.85;;;21.17;;
23543;SDS011;11950;51.230;4.012;2023-02-07T14:28:33;40.90;;;19.90;;
23543;SDS011;11950;51.230;4.012;2023-02-07T14:30:28;37.13;;;19.23;;
23543;SDS011;11950;51.230;4.012;2023-02-07T14:35:37;35.47;;;18.13;;
23543;SDS011;11950;51.230;4.012;2023-02-07T14:41:36;31.65;;;17.15;;
23543;SDS011;11950;51.230;4.012;2023-02-07T14:44:05;32.45;;;16.58;;
23543;SDS011;11950;51.230;4.012;2023-02-07T14:46:47;33.08;;;15.27;;
23543;SDS011;11950;51.230;4.012;2023-02-07T14:49:20;29.27;;;15.20;;
23543;SDS011;11950;51.230;4.012;2023-02-07T14:51:57;29.92;;;15.07;;
23543;SDS011;11950;51.230;4.012;2023-02-07T14:54:44;32.55;;;15.27;;
23543;SDS011;11950;51.230;4.012;2023-02-07T15:00:25;29.40;;;15.25;;
23543;SDS011;11950;51.230;4.012;2023-02-07T15:03:16;29.52;;;14.05;;
23543;SDS011;11950;51.230;4.012;2023-02-07T15:08:17;28.65;;;14.07;;
23543;SDS011;11950;51.230;4.012;2023-02-07T15:10:55;30.70;;;14.63;;
23543;SDS011;11950;51.230;4.012;2023-02-07T15:13:48;31.30;;;14.75;;
23543;SDS011;11950;51.230;4.012;2023-02-07T15:18:43;31.45;;;15.80;;
23543;SDS011;11950;51.230;4.012;2023-02-07T15:21:22;36.17;;;18.38;;
23543;SDS011;11950;51.230;4.012;2023-02-07T15:26:58;40.15;;;19.55;;
23543;SDS011;11950;51.230;4.012;2023-02-07T15:29:27;38.53;;;19.48;;
23543;SDS011;11950;51.230;4.012;2023-02-07T15:31:55;39.58;;;19.48;;
23543;SDS011;11950;51.230;4.012;2023-02-07T15:34:23;46.45;;;22.50;;
23543;SDS011;11950;51.230;4.012;2023-02-07T15:36:57;49.92;;;24.15;;
23543;SDS011;11950;51.230;4.012;2023-02-07T15:39:26;49.35;;;24.48;;
23543;SDS011;11950;51.230;4.012;2023-02-07T15:41:54;46.92;;;24.05;;
23543;SDS011;11950;51.230;4.012;2023-02-07T15:44:25;47.13;;;24.45;;
23543;SDS011;11950;51.230;4.012;2023-02-07T15:49:37;48.42;;;24.23;;
23543;SDS011;11950;51.230;4.012;2023-02-07T15:52:31;52.83;;;26.08;;
23543;SDS011;11950;51.230;4.012;2023-02-07T15:55:12;45.25;;;24.13;;
23543;SDS011;11950;51.230;4.012;2023-02-07T15:57:54;50.80;;;25.25;;
23543;SDS011;11950;51.230;4.012;2023-02-07T16:00:26;49.38;;;25.00;;
23543;SDS011;11950;51.230;4.012;2023-02-07T16:03:03;47.78;;;25.15;;
23543;SDS011;11950;51.230;4.012;2023-02-07T16:05:32;48.50;;;24.75;;
23543;SDS011;11950;51.230;4.012;2023-02-07T16:08:04;42.00;;;23.20;;
23543;SDS011;11950;51.230;4.012;2023-02-07T16:10:51;46.58;;;23.75;;
23543;SDS011;11950;51.230;4.012;2023-02-07T16:13:19;41.58;;;22.80;;
23543;SDS011;11950;51.230;4.012;2023-02-07T16:16:07;38.90;;;22.00;;
23543;SDS011;11950;51.230;4.012;2023-02-07T16:21:05;44.50;;;22.73;;
23543;SDS011;11950;51.230;4.012;2023-02-07T16:23:38;44.50;;;22.80;;
23543;SDS011;11950;51.230;4.012;2023-02-07T16:26:05;38.72;;;21.77;;
23543;SDS011;11950;51.230;4.012;2023-02-07T16:28:31;40.20;;;22.38;;
23543;SDS011;11950;51.230;4.012;2023-02-07T16:30:58;43.13;;;22.33;;
23543;SDS011;11950;51.230;4.012;2023-02-07T16:33:25;42.15;;;21.85;;
23543;SDS011;11950;51.230;4.012;2023-02-07T16:35:51;41.63;;;21.38;;
23543;SDS011;11950;51.230;4.012;2023-02-07T16:38:17;37.25;;;20.42;;
23543;SDS011;11950;51.230;4.012;2023-02-07T16:40:44;38.92;;;20.40;;
23543;SDS011;11950;51.230;4.012;2023-02-07T16:43:18;35.63;;;19.75;;
23543;SDS011;11950;51.230;4.012;2023-02-07T16:46:03;37.78;;;20.60;;
23543;SDS011;11950;51.230;4.012;2023-02-07T16:48:30;40.42;;;21.23;;
23543;SDS011;11950;51.230;4.012;2023-02-07T16:50:57;38.90;;;21.75;;
23543;SDS011;11950;51.230;4.012;2023-02-07T16:53:26;43.45;;;21.27;;
23543;SDS011;11950;51.230;4.012;2023-02-07T16:55:53;44.67;;;23.15;;
23543;SDS011;11950;51.230;4.012;2023-02-07T16:58:25;41.25;;;21.77;;
23543;SDS011;11950;51.230;4.012;2023-02-07T17:00:53;45.65;;;23.17;;
23543;SDS011;11950;51.230;4.012;2023-02-07T17:03:20;42.78;;;22.98;;
23543;SDS011;11950;51.230;4.012;2023-02-07T17:05:47;42.78;;;23.40;;
23543;SDS011;11950;51.230;4.012;2023-02-07T17:08:15;41.63;;;22.85;;
23543;SDS011;11950;51.230;4.012;2023-02-07T17:10:55;41.90;;;24.33;;
23543;SDS011;11950;51.230;4.012;2023-02-07T17:13:24;40.83;;;23.02;;